Detroit, Michigan
Traffic Map
Current Weather Conditions
Detroit, Michigan
Broken Clouds Rain Showers
Broken Clouds
27°
Feels Like: 28°
Wind Chill: 27° Ceiling: 4200
Heat Index: 28° Visibility: 7mi
Dew Point: 19° Wind: 21mph
Humidity: 61% Direction: 200° (SSW)
Pressure: 29.92in Gusts: 28mph
Raw Report DataCYQG 292100Z 20018G24KT 7SM -SHRA BKN042CB BKN120 BKN290 27/19 A2992 RMK CB5AC1CI1 SLP130 DENSITY ALT 2100FT
Traffic Incident Summary
Active as of:
Severity:
Category:
InformationThere was an issue retrieving the traffic information for this location. Please try a different location or try again shortly.
Advertisements
Track Severe Weather on mobile